Time;durP1;ratioP1;P1;durP2;ratioP2;P2;SDS_P1;SDS_P2;PMS_P1;PMS_P2;Temp;Humidity;BMP_temperature;BMP_pressure;BME280_temperature;BME280_humidity;BME280_pressure;Samples;Min_cycle;Max_cycle;Signal;HPM_P1;HPM_P2
2022/09/23 00:00:44;;;;;;;2.50;2.30;;;7.70;79.60;;;;;;5001440;28;20362;-60
2022/09/23 00:03:10;;;;;;;3.13;2.83;;;7.60;79.90;;;;;;5026112;28;20431;-60
2022/09/23 00:05:37;;;;;;;3.67;2.60;;;7.50;80.10;;;;;;4996844;28;20437;-60
2022/09/23 00:08:03;;;;;;;3.07;2.77;;;7.40;80.30;;;;;;5014300;28;20230;-60
2022/09/23 00:10:30;;;;;;;3.00;2.10;;;7.40;80.30;;;;;;4996944;28;20609;-60
2022/09/23 00:12:56;;;;;;;4.30;2.37;;;7.40;80.30;;;;;;4974327;28;20436;-60
2022/09/23 00:15:24;;;;;;;2.90;2.50;;;7.40;80.30;;;;;;5006566;28;20518;-60
2022/09/23 00:17:50;;;;;;;3.30;2.47;;;7.40;80.10;;;;;;5020419;28;20436;-60
2022/09/23 00:20:16;;;;;;;4.17;2.53;;;7.40;80.20;;;;;;5017224;28;20434;-60
2022/09/23 00:22:42;;;;;;;3.30;2.73;;;7.40;80.20;;;;;;5007345;28;20439;-60
2022/09/23 00:25:09;;;;;;;3.00;2.80;;;7.40;80.30;;;;;;4980479;28;20435;-60
2022/09/23 00:27:35;;;;;;;2.97;2.67;;;7.40;80.10;;;;;;5008082;28;20204;-60
2022/09/23 00:30:03;;;;;;;2.60;2.27;;;7.50;80.10;;;;;;5013543;28;20429;-60
2022/09/23 00:32:28;;;;;;;2.53;2.33;;;7.50;80.00;;;;;;5002995;28;20450;-60
2022/09/23 00:34:54;;;;;;;2.90;2.60;;;7.50;79.90;;;;;;4992265;28;20555;-60
2022/09/23 00:37:20;;;;;;;3.30;3.00;;;7.40;79.70;;;;;;5008562;28;20279;-60
2022/09/23 00:39:46;;;;;;;9.20;2.53;;;7.40;80.00;;;;;;4979901;28;20176;-60
2022/09/23 00:42:17;;;;;;;5.03;2.70;;;7.30;80.00;;;;;;4978092;28;20208;-60
2022/09/23 00:44:45;;;;;;;3.50;2.70;;;7.30;80.00;;;;;;4978760;28;20438;-60
2022/09/23 00:47:20;;;;;;;3.23;2.53;;;7.30;80.10;;;;;;5014308;28;20431;-60
2022/09/23 00:49:53;;;;;;;3.13;2.50;;;7.30;80.30;;;;;;5011060;28;20435;-60
2022/09/23 00:52:22;;;;;;;2.67;2.30;;;7.20;80.30;;;;;;4992996;28;20416;-60
2022/09/23 00:54:50;;;;;;;3.33;2.73;;;7.30;80.40;;;;;;5008068;28;20523;-60
2022/09/23 00:57:18;;;;;;;3.37;2.77;;;7.30;80.40;;;;;;5019128;28;20477;-60
2022/09/23 00:59:45;;;;;;;4.37;2.73;;;7.30;80.20;;;;;;4990445;28;20433;-60
2022/09/23 01:02:13;;;;;;;2.70;2.20;;;7.30;80.00;;;;;;5021961;28;20453;-60
2022/09/23 01:04:39;;;;;;;4.10;2.77;;;7.30;80.20;;;;;;4981409;28;20428;-60
2022/09/23 01:07:05;;;;;;;4.53;2.53;;;7.30;80.40;;;;;;5002099;28;20441;-60
2022/09/23 01:09:31;;;;;;;2.70;2.40;;;7.30;80.30;;;;;;5001024;28;20511;-60
2022/09/23 01:12:02;;;;;;;5.20;2.40;;;7.30;80.00;;;;;;5005114;28;20468;-60
2022/09/23 01:14:46;;;;;;;3.57;2.07;;;7.30;80.00;;;;;;4993723;28;20189;-60
2022/09/23 01:17:30;;;;;;;3.67;2.70;;;7.30;79.90;;;;;;5011515;28;20522;-60
2022/09/23 01:20:14;;;;;;;4.23;2.33;;;7.30;79.90;;;;;;5010178;28;20439;-60
2022/09/23 01:23:04;;;;;;;3.10;2.80;;;7.30;80.00;;;;;;5023585;28;20462;-60
2022/09/23 01:25:33;;;;;;;5.03;2.60;;;7.20;80.30;;;;;;5020092;28;20443;-60
2022/09/23 01:28:10;;;;;;;6.47;2.77;;;7.10;80.30;;;;;;5017190;28;20463;-60
2022/09/23 01:31:08;;;;;;;3.10;2.80;;;7.10;80.40;;;;;;5015845;28;20436;-60
2022/09/23 01:33:43;;;;;;;3.43;2.17;;;7.10;80.60;;;;;;5025029;28;20423;-60
2022/09/23 01:36:14;;;;;;;3.10;2.67;;;7.10;80.30;;;;;;5011082;28;20442;-60
2022/09/23 01:38:52;;;;;;;3.60;2.60;;;7.10;80.30;;;;;;4979056;28;20432;-60
2022/09/23 01:41:31;;;;;;;4.70;2.93;;;7.10;80.50;;;;;;4989179;28;20431;-60
2022/09/23 01:44:10;;;;;;;3.37;2.83;;;7.10;80.40;;;;;;4981514;28;20431;-60
2022/09/23 01:47:09;;;;;;;4.00;3.00;;;7.10;80.40;;;;;;4986847;28;20436;-60
2022/09/23 01:49:41;;;;;;;2.93;2.30;;;7.10;80.50;;;;;;4986923;28;20498;-60
2022/09/23 01:52:46;;;;;;;3.57;2.80;;;7.20;80.40;;;;;;5018034;28;20427;-60
2022/09/23 01:55:23;;;;;;;4.00;3.00;;;7.10;80.40;;;;;;4993668;28;20420;-60
2022/09/23 01:57:58;;;;;;;3.63;2.67;;;7.10;80.40;;;;;;4988010;28;20445;-60
2022/09/23 02:00:25;;;;;;;2.97;2.50;;;7.00;80.30;;;;;;4995668;28;20419;-60
2022/09/23 02:02:56;;;;;;;6.43;2.63;;;7.10;80.70;;;;;;4992691;28;20428;-60
2022/09/23 02:06:15;;;;;;;3.73;2.73;;;7.10;80.20;;;;;;4984962;28;20452;-60
2022/09/23 02:08:51;;;;;;;3.00;2.60;;;7.00;80.20;;;;;;5020854;28;20475;-60
2022/09/23 02:11:17;;;;;;;2.87;2.40;;;6.90;80.20;;;;;;4986148;28;20531;-60
2022/09/23 02:13:45;;;;;;;3.10;2.70;;;6.80;80.30;;;;;;4987262;28;20459;-60
2022/09/23 02:16:25;;;;;;;4.10;2.50;;;6.80;80.60;;;;;;4981592;28;20426;-60
2022/09/23 02:18:57;;;;;;;4.83;2.93;;;6.80;80.60;;;;;;5026997;28;20476;-60
2022/09/23 02:21:28;;;;;;;3.63;2.63;;;6.70;80.40;;;;;;4995730;28;20473;-60
2022/09/23 02:24:07;;;;;;;5.17;2.90;;;6.70;80.70;;;;;;4987566;28;20510;-60
2022/09/23 02:26:47;;;;;;;3.40;2.40;;;6.80;80.50;;;;;;5011219;28;20446;-60
2022/09/23 02:29:18;;;;;;;4.23;2.53;;;6.70;80.20;;;;;;5027651;28;20463;-60
2022/09/23 02:31:56;;;;;;;4.20;2.93;;;6.70;80.20;;;;;;5026607;28;20475;-60
2022/09/23 02:34:45;;;;;;;2.57;2.30;;;6.60;80.10;;;;;;4985096;28;20463;-60
2022/09/23 02:37:11;;;;;;;2.90;2.37;;;6.70;80.20;;;;;;4994100;28;20452;-60
2022/09/23 02:39:45;;;;;;;2.50;2.30;;;6.60;80.10;;;;;;5019895;28;20431;-60
2022/09/23 02:42:20;;;;;;;2.93;2.53;;;6.50;80.70;;;;;;5013349;28;20196;-60
2022/09/23 02:44:46;;;;;;;3.37;2.60;;;6.50;80.90;;;;;;4988786;28;20412;-60
2022/09/23 02:47:12;;;;;;;5.00;2.70;;;6.50;80.50;;;;;;4990941;28;20450;-60
2022/09/23 02:49:38;;;;;;;3.70;3.03;;;6.50;80.50;;;;;;5004549;28;20240;-60
2022/09/23 02:52:06;;;;;;;3.77;2.60;;;6.50;80.70;;;;;;4994014;28;20196;-60
2022/09/23 02:54:33;;;;;;;3.17;2.87;;;6.40;80.80;;;;;;4994533;28;20184;-60
2022/09/23 02:57:05;;;;;;;3.63;2.13;;;6.50;81.10;;;;;;4985718;28;20519;-60
2022/09/23 02:59:32;;;;;;;3.90;2.83;;;6.50;81.00;;;;;;5010156;28;20425;-60
2022/09/23 03:02:33;;;;;;;3.70;2.60;;;6.60;80.70;;;;;;4993382;28;20444;-60
2022/09/23 03:05:02;;;;;;;3.43;2.70;;;6.60;80.60;;;;;;4994094;28;20462;-60
2022/09/23 03:07:59;;;;;;;4.50;2.73;;;6.60;80.60;;;;;;4985335;28;20467;-60
2022/09/23 03:10:56;;;;;;;3.03;2.53;;;6.60;80.60;;;;;;5021743;28;20425;-60
2022/09/23 03:13:47;;;;;;;8.07;2.80;;;6.50;80.70;;;;;;4983456;28;20456;-60
2022/09/23 03:16:42;;;;;;;3.70;2.73;;;6.50;80.80;;;;;;5017928;28;20429;-60
2022/09/23 03:19:11;;;;;;;3.27;2.83;;;6.50;80.90;;;;;;4997492;28;20436;-60
2022/09/23 03:21:44;;;;;;;3.43;2.77;;;6.50;80.80;;;;;;5023975;28;20440;-60
2022/09/23 03:24:13;;;;;;;6.07;3.10;;;6.40;80.90;;;;;;5016842;28;20436;-60
2022/09/23 03:26:43;;;;;;;5.37;2.40;;;6.30;81.30;;;;;;5012141;28;20471;-60
2022/09/23 03:29:10;;;;;;;2.90;2.60;;;6.40;81.10;;;;;;4985013;28;20472;-60
2022/09/23 03:31:38;;;;;;;2.80;2.50;;;6.30;80.90;;;;;;4994911;28;20429;-60
2022/09/23 03:34:11;;;;;;;2.97;2.63;;;6.40;81.00;;;;;;5003588;28;20479;-60
2022/09/23 03:36:59;;;;;;;2.90;2.70;;;6.50;80.70;;;;;;4982988;28;20442;-60
2022/09/23 03:39:40;;;;;;;3.47;2.73;;;6.50;80.60;;;;;;5018333;28;20436;-60
2022/09/23 03:42:23;;;;;;;3.70;3.27;;;6.40;80.30;;;;;;5011079;28;20471;-60
2022/09/23 03:44:53;;;;;;;3.03;2.40;;;6.30;80.30;;;;;;5016260;28;20447;-60
2022/09/23 03:47:19;;;;;;;4.30;2.63;;;6.30;80.70;;;;;;5001556;28;20449;-60
2022/09/23 03:49:47;;;;;;;5.70;2.90;;;6.30;80.60;;;;;;4982450;28;20435;-62
2022/09/23 03:52:23;;;;;;;4.93;3.20;;;6.20;80.80;;;;;;4997521;28;20427;-60
2022/09/23 03:54:49;;;;;;;4.30;2.77;;;6.20;80.90;;;;;;4985904;28;20440;-60
2022/09/23 03:57:15;;;;;;;5.77;2.63;;;6.20;81.10;;;;;;4995376;28;20428;-60
2022/09/23 03:59:41;;;;;;;4.03;2.73;;;6.10;81.00;;;;;;5018555;28;20951;-60
2022/09/23 04:02:07;;;;;;;3.53;3.00;;;6.10;81.20;;;;;;4976586;28;20243;-61
2022/09/23 04:04:36;;;;;;;5.23;2.83;;;6.10;81.20;;;;;;4979445;28;20494;-62
2022/09/23 04:07:02;;;;;;;3.60;2.87;;;6.10;81.50;;;;;;4987647;28;20475;-62
2022/09/23 04:09:28;;;;;;;4.77;3.20;;;6.00;81.30;;;;;;5012057;28;20542;-62
2022/09/23 04:11:54;;;;;;;5.23;3.03;;;6.00;81.40;;;;;;4983225;28;21518;-62
2022/09/23 04:14:21;;;;;;;4.17;2.73;;;6.00;81.30;;;;;;5004378;28;20193;-62
2022/09/23 04:16:47;;;;;;;6.53;2.97;;;6.00;81.10;;;;;;4978817;28;20243;-60
2022/09/23 04:19:14;;;;;;;4.17;2.93;;;6.00;81.30;;;;;;4982126;28;20432;-60
2022/09/23 04:21:41;;;;;;;3.87;2.93;;;6.00;81.30;;;;;;5002216;28;20543;-60
2022/09/23 04:24:08;;;;;;;5.87;3.10;;;6.00;81.20;;;;;;5018400;28;20455;-60
2022/09/23 04:26:33;;;;;;;5.07;3.30;;;6.00;81.10;;;;;;5017685;28;20484;-60
2022/09/23 04:28:59;;;;;;;4.10;2.70;;;6.00;81.00;;;;;;5002456;28;20456;-59
2022/09/23 04:31:25;;;;;;;3.50;2.80;;;6.00;80.90;;;;;;4999499;28;20196;-59
2022/09/23 04:33:54;;;;;;;5.23;2.73;;;6.00;80.80;;;;;;4999897;28;20263;-59
2022/09/23 04:36:20;;;;;;;3.30;2.80;;;6.00;81.00;;;;;;4990056;28;20189;-59
2022/09/23 04:38:48;;;;;;;2.97;2.67;;;5.90;81.10;;;;;;5005548;28;20428;-60
2022/09/23 04:41:14;;;;;;;3.93;2.87;;;6.00;80.80;;;;;;4988977;28;20512;-60
2022/09/23 04:43:41;;;;;;;4.27;2.57;;;6.00;80.60;;;;;;4978439;28;20440;-60
2022/09/23 04:46:09;;;;;;;3.60;2.80;;;6.00;80.70;;;;;;5010136;28;20432;-60
2022/09/23 04:48:36;;;;;;;3.93;3.33;;;5.80;81.10;;;;;;5023271;28;20463;-60
2022/09/23 04:51:08;;;;;;;3.73;2.80;;;5.80;81.30;;;;;;4995030;28;20466;-60
2022/09/23 04:53:38;;;;;;;4.77;3.30;;;5.90;81.30;;;;;;5028341;28;20453;-60
2022/09/23 04:56:16;;;;;;;3.63;3.23;;;5.90;81.20;;;;;;4996001;28;20475;-60
2022/09/23 04:58:42;;;;;;;5.53;2.90;;;6.00;81.00;;;;;;5021945;28;20434;-60
2022/09/23 05:01:14;;;;;;;3.47;2.83;;;5.90;80.90;;;;;;4980389;28;20480;-60
2022/09/23 05:03:41;;;;;;;5.53;2.70;;;5.90;81.20;;;;;;4984933;28;20526;-60
2022/09/23 05:06:07;;;;;;;2.80;2.60;;;5.90;81.30;;;;;;5020255;28;20419;-60
2022/09/23 05:08:34;;;;;;;2.83;2.53;;;5.90;81.10;;;;;;5005870;28;20471;-60
2022/09/23 05:11:05;;;;;;;3.17;2.80;;;5.90;81.20;;;;;;4988852;28;20436;-60
2022/09/23 05:13:31;;;;;;;5.30;2.60;;;5.90;81.80;;;;;;5001626;28;20493;-61
2022/09/23 05:16:03;;;;;;;4.17;3.10;;;5.90;81.70;;;;;;4987259;28;20428;-60
2022/09/23 05:18:33;;;;;;;2.90;2.60;;;6.00;81.80;;;;;;5016468;28;20203;-60
2022/09/23 05:20:59;;;;;;;6.23;3.00;;;6.00;81.70;;;;;;5011862;28;20424;-60
2022/09/23 05:23:26;;;;;;;3.70;2.83;;;6.00;81.50;;;;;;5011494;28;20547;-60
2022/09/23 05:26:06;;;;;;;3.40;2.90;;;6.00;81.80;;;;;;5020572;28;20237;-60
2022/09/23 05:28:32;;;;;;;3.33;2.93;;;6.00;81.60;;;;;;5023099;28;20473;-60
2022/09/23 05:31:04;;;;;;;3.87;2.73;;;6.00;81.80;;;;;;5001574;28;20453;-60
2022/09/23 05:33:30;;;;;;;3.57;2.83;;;6.10;81.80;;;;;;5011401;28;20427;-59
2022/09/23 05:35:56;;;;;;;5.30;3.10;;;6.10;81.40;;;;;;5018880;28;20444;-60
2022/09/23 05:38:22;;;;;;;6.20;3.23;;;6.10;81.30;;;;;;5018841;28;20443;-60
2022/09/23 05:40:55;;;;;;;3.30;3.00;;;6.10;81.30;;;;;;5004427;28;20665;-59
2022/09/23 05:43:21;;;;;;;3.73;3.10;;;6.10;81.30;;;;;;5022171;28;20224;-59
2022/09/23 05:45:46;;;;;;;4.17;3.23;;;6.10;81.50;;;;;;5004881;28;20508;-59
2022/09/23 05:48:12;;;;;;;4.33;3.17;;;6.10;81.40;;;;;;5012299;28;20228;-59
2022/09/23 05:50:37;;;;;;;4.43;3.20;;;6.10;81.70;;;;;;4996918;28;20182;-58
2022/09/23 05:53:03;;;;;;;3.77;3.37;;;6.20;81.70;;;;;;5028445;28;20275;-59
2022/09/23 05:55:29;;;;;;;4.43;2.90;;;6.30;81.30;;;;;;5001928;28;20303;-59
2022/09/23 05:57:55;;;;;;;4.20;3.13;;;6.20;81.40;;;;;;5014773;28;20192;-59
2022/09/23 06:00:20;;;;;;;4.77;2.93;;;6.30;81.40;;;;;;5012371;28;20464;-59
2022/09/23 06:02:48;;;;;;;6.67;3.33;;;6.30;81.50;;;;;;5016132;28;20301;-58
2022/09/23 06:05:15;;;;;;;3.93;3.03;;;6.40;81.40;;;;;;5006445;28;20196;-59
2022/09/23 06:07:40;;;;;;;4.10;3.07;;;6.40;81.70;;;;;;5001071;28;20494;-59
2022/09/23 06:10:06;;;;;;;5.27;3.57;;;6.50;81.60;;;;;;4991462;28;20437;-59
2022/09/23 06:12:32;;;;;;;3.83;2.93;;;6.50;81.30;;;;;;4986424;28;20280;-59
2022/09/23 06:14:57;;;;;;;4.17;3.67;;;6.50;81.30;;;;;;4992123;28;20370;-59
2022/09/23 06:17:23;;;;;;;4.40;3.00;;;6.50;81.30;;;;;;4980595;28;20659;-59
2022/09/23 06:19:49;;;;;;;3.90;3.30;;;6.60;81.30;;;;;;5007907;28;20189;-59
2022/09/23 06:22:16;;;;;;;6.00;3.33;;;6.60;81.30;;;;;;5006041;28;20201;-59
2022/09/23 06:24:42;;;;;;;4.80;3.20;;;6.60;81.30;;;;;;4989713;28;20279;-59
2022/09/23 06:27:09;;;;;;;5.70;3.17;;;6.70;81.50;;;;;;4984355;28;20503;-59
2022/09/23 06:29:35;;;;;;;4.33;3.40;;;6.70;81.40;;;;;;4991130;28;20220;-59
2022/09/23 06:32:01;;;;;;;6.30;3.50;;;6.80;81.40;;;;;;5003626;28;20436;-59
2022/09/23 06:34:26;;;;;;;4.97;3.83;;;6.80;81.50;;;;;;5037106;28;20256;-59
2022/09/23 06:36:54;;;;;;;5.63;4.00;;;6.80;81.40;;;;;;4984763;28;20459;-58
2022/09/23 06:39:20;;;;;;;4.87;3.57;;;6.90;81.30;;;;;;4979273;28;20209;-59
2022/09/23 06:41:45;;;;;;;5.30;3.50;;;6.90;81.20;;;;;;5004149;28;20463;-59
2022/09/23 06:44:12;;;;;;;4.57;3.60;;;7.00;81.20;;;;;;5027425;28;20227;-59
2022/09/23 06:46:37;;;;;;;9.67;4.57;;;7.00;81.10;;;;;;4994195;28;20189;-59
2022/09/23 06:49:03;;;;;;;5.10;3.70;;;7.00;81.00;;;;;;4998366;28;20475;-59
2022/09/23 06:51:29;;;;;;;5.93;3.80;;;7.10;81.10;;;;;;5016530;28;20191;-59
2022/09/23 06:53:54;;;;;;;5.53;4.00;;;7.10;81.10;;;;;;4996844;28;20184;-59
2022/09/23 06:56:21;;;;;;;5.80;3.97;;;7.30;81.10;;;;;;4993683;28;20199;-59
2022/09/23 06:58:49;;;;;;;4.77;3.90;;;7.30;81.00;;;;;;5002652;28;20189;-59
2022/09/23 07:01:16;;;;;;;5.07;3.63;;;7.30;81.00;;;;;;5021503;28;20446;-59
2022/09/23 07:03:43;;;;;;;7.20;3.97;;;7.40;80.70;;;;;;5007821;28;20530;-59
2022/09/23 07:06:10;;;;;;;6.17;4.07;;;7.40;80.70;;;;;;5018601;28;20427;-59
2022/09/23 07:08:36;;;;;;;9.37;4.93;;;7.50;80.30;;;;;;4982300;28;20471;-59
2022/09/23 07:11:05;;;;;;;6.63;4.00;;;7.60;80.40;;;;;;5004081;28;20447;-59
2022/09/23 07:13:32;;;;;;;6.03;4.50;;;7.60;80.40;;;;;;4977576;28;20437;-59
2022/09/23 07:16:00;;;;;;;5.37;4.00;;;7.70;80.40;;;;;;4987127;28;20436;-59
2022/09/23 07:18:27;;;;;;;5.73;4.20;;;7.70;80.40;;;;;;5001070;28;20470;-59
2022/09/23 07:20:57;;;;;;;6.43;5.33;;;7.80;80.40;;;;;;4973424;28;20800;-59
2022/09/23 07:23:24;;;;;;;7.87;4.50;;;7.80;80.40;;;;;;5006437;28;20450;-59
2022/09/23 07:25:50;;;;;;;6.37;3.83;;;7.90;80.30;;;;;;5024745;28;20428;-59
2022/09/23 07:28:19;;;;;;;6.07;3.97;;;7.90;80.10;;;;;;4988756;28;20469;-59
2022/09/23 07:30:45;;;;;;;5.97;3.93;;;7.90;80.30;;;;;;5008958;28;20495;-59
2022/09/23 07:33:11;;;;;;;7.40;4.43;;;8.00;80.30;;;;;;4990787;28;20444;-59
2022/09/23 07:35:41;;;;;;;4.47;3.83;;;8.10;80.00;;;;;;4990920;28;20471;-59
2022/09/23 07:38:08;;;;;;;6.57;4.60;;;8.10;79.70;;;;;;4975240;28;20428;-59
2022/09/23 07:40:34;;;;;;;5.20;4.70;;;8.20;79.50;;;;;;4978852;28;20444;-59
2022/09/23 07:43:00;;;;;;;5.27;4.40;;;8.30;79.60;;;;;;4997695;28;20431;-59
2022/09/23 07:45:26;;;;;;;5.27;4.60;;;8.30;79.50;;;;;;5033569;28;20447;-59
2022/09/23 07:47:54;;;;;;;6.30;4.37;;;8.30;79.30;;;;;;4987161;28;20448;-59
2022/09/23 07:50:21;;;;;;;5.83;4.13;;;8.40;79.00;;;;;;5020144;28;20192;-59
2022/09/23 07:52:48;;;;;;;5.43;4.00;;;8.50;78.80;;;;;;5015248;28;20483;-59
2022/09/23 07:55:14;;;;;;;9.33;4.10;;;8.50;78.70;;;;;;4991276;28;20435;-59
2022/09/23 07:57:40;;;;;;;7.23;4.57;;;8.60;78.50;;;;;;4992342;28;20503;-59
2022/09/23 08:00:06;;;;;;;5.87;4.50;;;8.70;78.10;;;;;;4966803;28;20189;-59
2022/09/23 08:02:32;;;;;;;6.73;4.13;;;8.80;78.00;;;;;;5007234;28;20189;-59
2022/09/23 08:04:57;;;;;;;5.07;3.50;;;8.80;77.80;;;;;;4988381;28;20488;-59
2022/09/23 08:07:24;;;;;;;4.17;3.33;;;8.90;77.60;;;;;;5017614;28;20216;-59
2022/09/23 08:09:50;;;;;;;6.13;4.17;;;9.00;77.40;;;;;;4976373;28;20270;-59
2022/09/23 08:12:17;;;;;;;4.67;3.63;;;9.00;77.10;;;;;;5023027;28;20428;-59
2022/09/23 08:14:43;;;;;;;6.70;3.90;;;9.10;77.10;;;;;;5007584;28;20192;-59
2022/09/23 08:17:11;;;;;;;6.43;4.10;;;9.20;77.10;;;;;;5026240;28;20424;-59
2022/09/23 08:19:36;;;;;;;8.90;3.37;;;9.30;77.10;;;;;;5010361;28;20189;-59
2022/09/23 08:22:02;;;;;;;8.47;3.57;;;9.30;77.00;;;;;;5012249;28;20447;-59
2022/09/23 08:24:29;;;;;;;3.27;2.90;;;9.40;77.20;;;;;;5002122;28;20226;-59
2022/09/23 08:26:54;;;;;;;4.43;3.13;;;9.50;77.30;;;;;;4977134;28;20220;-59
2022/09/23 08:29:22;;;;;;;5.93;3.40;;;9.50;77.40;;;;;;4998679;28;20558;-59
2022/09/23 08:31:48;;;;;;;3.73;3.27;;;9.60;77.50;;;;;;4974044;28;20209;-59
2022/09/23 08:34:15;;;;;;;6.17;3.90;;;9.60;77.50;;;;;;5004281;28;20472;-59
2022/09/23 08:36:41;;;;;;;4.27;3.30;;;9.70;77.30;;;;;;4982641;28;20200;-59
2022/09/23 08:39:07;;;;;;;6.20;3.80;;;9.90;75.20;;;;;;4984942;28;20459;-59
2022/09/23 08:41:51;;;;;;;4.27;3.00;;;10.00;76.00;;;;;;5005467;28;20260;-59
2022/09/23 08:44:25;;;;;;;3.07;2.77;;;10.20;74.80;;;;;;4981959;28;20184;-59
2022/09/23 08:47:12;;;;;;;3.43;2.43;;;10.20;75.10;;;;;;5018548;28;20427;-59
2022/09/23 08:49:46;;;;;;;4.70;2.80;;;10.30;75.50;;;;;;5008669;28;20227;-59
2022/09/23 08:52:48;;;;;;;4.13;3.20;;;10.30;75.90;;;;;;5016056;28;20188;-59
2022/09/23 08:55:15;;;;;;;3.63;2.73;;;10.30;75.50;;;;;;4987371;28;20196;-59
2022/09/23 08:58:19;;;;;;;3.70;2.60;;;10.40;75.60;;;;;;4978534;28;20189;-59
2022/09/23 09:00:58;;;;;;;2.30;2.10;;;10.70;72.40;;;;;;5018346;28;20207;-59
2022/09/23 09:03:32;;;;;;;2.43;2.23;;;10.80;71.40;;;;;;4986267;28;20207;-59
2022/09/23 09:05:58;;;;;;;2.43;2.23;;;10.90;71.50;;;;;;4978826;28;20181;-59
2022/09/23 09:08:35;;;;;;;3.50;2.70;;;11.00;70.10;;;;;;5004806;28;20216;-59
2022/09/23 09:11:02;;;;;;;2.33;2.00;;;11.30;67.50;;;;;;5010135;28;20203;-59
2022/09/23 09:13:33;;;;;;;2.80;1.93;;;11.30;69.30;;;;;;5010488;28;20205;-59
2022/09/23 09:16:17;;;;;;;3.40;2.10;;;11.30;67.80;;;;;;5011301;28;20177;-59
2022/09/23 09:18:54;;;;;;;2.93;2.00;;;11.40;67.60;;;;;;5008008;28;20204;-59
2022/09/23 09:21:26;;;;;;;2.37;2.10;;;11.50;68.10;;;;;;4979405;28;20235;-59
2022/09/23 09:23:58;;;;;;;1.73;1.63;;;11.50;67.50;;;;;;5022093;28;20196;-59
2022/09/23 09:26:31;;;;;;;2.60;1.70;;;11.60;66.90;;;;;;5020205;28;20196;-59
2022/09/23 09:29:30;;;;;;;4.10;2.53;;;11.70;67.50;;;;;;5012755;28;20208;-59
2022/09/23 09:31:56;;;;;;;4.90;2.13;;;11.80;66.80;;;;;;5013217;28;20184;-59
2022/09/23 09:34:44;;;;;;;2.43;1.93;;;11.80;68.20;;;;;;4987853;28;20284;-59
2022/09/23 09:37:12;;;;;;;2.43;1.90;;;11.80;66.90;;;;;;4989400;28;20254;-60
2022/09/23 09:39:38;;;;;;;2.20;1.70;;;12.20;63.10;;;;;;5021117;28;20182;-59
2022/09/23 09:42:05;;;;;;;2.43;2.03;;;12.20;64.90;;;;;;5025721;28;20224;-59
2022/09/23 09:44:58;;;;;;;2.40;1.90;;;12.20;64.20;;;;;;4981321;28;20199;-59
2022/09/23 09:47:33;;;;;;;2.20;1.80;;;12.30;65.60;;;;;;5019815;28;20189;-59
2022/09/23 09:50:07;;;;;;;3.43;1.70;;;12.30;65.70;;;;;;5027050;28;20208;-58
2022/09/23 09:52:32;;;;;;;4.87;1.80;;;12.40;64.60;;;;;;4991521;28;20188;-58
2022/09/23 09:55:27;;;;;;;1.77;1.67;;;12.40;65.70;;;;;;5007605;28;20228;-58
2022/09/23 09:58:03;;;;;;;2.27;1.90;;;12.50;66.20;;;;;;5006723;28;20193;-58
2022/09/23 10:00:29;;;;;;;3.10;2.10;;;12.60;65.70;;;;;;5024892;28;20199;-58
2022/09/23 10:02:57;;;;;;;3.27;2.43;;;12.70;66.10;;;;;;5013837;28;20181;-58
2022/09/23 10:05:47;;;;;;;2.70;1.83;;;12.80;63.60;;;;;;5019598;28;20208;-59
2022/09/23 10:08:34;;;;;;;1.87;1.67;;;12.80;63.00;;;;;;4993548;28;20363;-58
2022/09/23 10:11:16;;;;;;;4.80;2.17;;;12.90;63.80;;;;;;5020563;28;20185;-59
2022/09/23 10:13:59;;;;;;;3.37;1.87;;;12.90;63.20;;;;;;5012149;28;20235;-59
2022/09/23 10:16:26;;;;;;;7.63;2.37;;;12.90;64.00;;;;;;4986674;28;20207;-59
2022/09/23 10:18:55;;;;;;;1.90;1.53;;;12.90;63.40;;;;;;4996973;28;20200;-58
2022/09/23 10:21:32;;;;;;;2.33;1.97;;;12.90;64.00;;;;;;5021222;28;20192;-59
2022/09/23 10:24:00;;;;;;;1.90;1.70;;;13.20;62.70;;;;;;5033761;28;20199;-59
2022/09/23 10:26:32;;;;;;;2.60;2.20;;;13.20;63.70;;;;;;5023011;28;20278;-59
2022/09/23 10:29:02;;;;;;;3.00;2.20;;;13.40;63.20;;;;;;5008759;28;20227;-59
2022/09/23 10:31:31;;;;;;;2.77;2.10;;;13.50;63.00;;;;;;4993992;28;20187;-59
2022/09/23 10:34:02;;;;;;;2.70;2.00;;;13.50;61.00;;;;;;5013726;28;20229;-59
2022/09/23 10:36:32;;;;;;;3.53;1.70;;;13.70;59.40;;;;;;4984339;28;20188;-60
2022/09/23 10:48:43;;;;;;;2.53;2.00;;;14.00;59.70;;;;;;4975128;28;20294;-59
2022/09/23 10:51:33;;;;;;;3.30;2.13;;;14.20;60.70;;;;;;5007079;28;20216;-60
2022/09/23 10:53:59;;;;;;;4.57;2.10;;;14.30;59.10;;;;;;4989109;28;20240;-59
2022/09/23 10:56:38;;;;;;;2.90;2.20;;;14.30;60.30;;;;;;5023397;28;20193;-60
2022/09/23 10:59:13;;;;;;;2.73;1.90;;;14.40;61.30;;;;;;5018204;28;20185;-59
2022/09/23 11:02:02;;;;;;;2.33;2.00;;;14.70;59.30;;;;;;5006145;28;20193;-60
2022/09/23 11:04:45;;;;;;;1.83;1.53;;;14.70;59.60;;;;;;5012716;28;20227;-59
2022/09/23 11:07:20;;;;;;;2.00;1.90;;;14.60;60.50;;;;;;4979809;28;20189;-59
2022/09/23 11:09:55;;;;;;;3.00;2.23;;;15.10;57.80;;;;;;5018020;28;20212;-59
2022/09/23 11:12:38;;;;;;;2.50;1.90;;;15.10;60.70;;;;;;5011901;28;20195;-59
2022/09/23 11:15:31;;;;;;;2.23;1.50;;;15.30;56.10;;;;;;4979033;28;20192;-59
2022/09/23 11:18:16;;;;;;;2.27;1.70;;;15.40;53.10;;;;;;4979735;28;20185;-60
2022/09/23 11:20:42;;;;;;;1.80;1.60;;;15.50;55.90;;;;;;4981226;28;20203;-60
2022/09/23 11:23:08;;;;;;;2.57;1.50;;;15.70;55.90;;;;;;5025402;28;20188;-60
2022/09/23 11:26:11;;;;;;;2.27;1.90;;;15.90;52.80;;;;;;5018352;28;20244;-60
2022/09/23 11:28:39;;;;;;;3.97;1.60;;;15.90;55.30;;;;;;4984399;28;20216;-60
2022/09/23 11:31:13;;;;;;;2.20;1.90;;;16.20;53.00;;;;;;4991280;28;20187;-60
2022/09/23 11:34:37;;;;;;;1.87;1.77;;;16.20;53.80;;;;;;4975550;28;20184;-60
2022/09/23 11:37:12;;;;;;;2.10;1.40;;;16.30;49.80;;;;;;5027793;28;20186;-60
2022/09/23 11:39:58;;;;;;;1.30;1.20;;;16.30;47.50;;;;;;5040519;28;20376;-60
2022/09/23 11:42:29;;;;;;;2.17;1.60;;;16.40;48.80;;;;;;4995149;28;20275;-59
2022/09/23 11:45:01;;;;;;;1.80;1.57;;;16.20;46.60;;;;;;5019807;28;20181;-59
2022/09/23 11:47:35;;;;;;;3.13;1.50;;;16.40;50.20;;;;;;4979483;28;20182;-61
2022/09/23 11:50:15;;;;;;;1.50;1.40;;;16.60;49.80;;;;;;4978908;28;20276;-61
2022/09/23 11:52:50;;;;;;;2.87;1.77;;;16.80;50.80;;;;;;4978726;28;20280;-60
2022/09/23 11:55:48;;;;;;;2.30;1.43;;;16.80;48.90;;;;;;5020115;28;20193;-60
2022/09/23 11:58:20;;;;;;;3.17;1.43;;;17.00;49.50;;;;;;4978286;28;20205;-59
2022/09/23 12:00:58;;;;;;;2.63;1.43;;;16.90;49.50;;;;;;4985627;28;20196;-60
2022/09/23 12:03:46;;;;;;;1.93;1.60;;;16.90;51.00;;;;;;4988497;28;20241;-60
2022/09/23 12:06:44;;;;;;;1.70;1.60;;;17.30;49.90;;;;;;5003081;28;20465;-59
2022/09/23 12:09:26;;;;;;;2.03;1.83;;;17.40;49.60;;;;;;4987843;28;20220;-61
2022/09/23 12:12:16;;;;;;;3.23;1.30;;;17.50;51.40;;;;;;4973348;28;20184;-60
2022/09/23 12:15:15;;;;;;;1.73;1.57;;;17.70;51.30;;;;;;4973776;28;20193;-59
2022/09/23 12:18:05;;;;;;;1.87;1.67;;;18.00;46.10;;;;;;5009898;28;20185;-60
2022/09/23 12:20:46;;;;;;;1.77;1.43;;;18.00;48.80;;;;;;4973433;28;20185;-59
2022/09/23 12:23:20;;;;;;;2.63;1.23;;;18.40;45.80;;;;;;4981810;28;20212;-60
2022/09/23 12:25:51;;;;;;;1.20;1.10;;;18.70;47.20;;;;;;5017344;28;20252;-60
2022/09/23 12:28:19;;;;;;;1.80;1.30;;;19.20;45.80;;;;;;4975226;28;20217;-60
2022/09/23 12:30:46;;;;;;;1.87;1.47;;;19.80;46.50;;;;;;5021649;28;20184;-59
2022/09/23 12:33:25;;;;;;;1.83;1.50;;;20.20;42.60;;;;;;4979885;28;20209;-59
2022/09/23 12:36:25;;;;;;;3.93;1.77;;;20.30;41.10;;;;;;4989355;28;20258;-59
2022/09/23 12:38:55;;;;;;;1.60;1.50;;;20.90;41.10;;;;;;4986551;28;20180;-59
2022/09/23 12:41:38;;;;;;;2.27;1.40;;;21.50;38.30;;;;;;5021233;28;20188;-59
2022/09/23 12:44:10;;;;;;;1.50;1.17;;;21.90;39.30;;;;;;5013018;28;20192;-60
2022/09/23 12:46:36;;;;;;;1.70;1.60;;;22.20;38.60;;;;;;5007609;28;20211;-60
2022/09/23 12:49:03;;;;;;;2.17;1.40;;;22.70;36.80;;;;;;4994986;28;20212;-59
2022/09/23 12:51:31;;;;;;;1.33;1.23;;;23.00;37.80;;;;;;5021430;28;20272;-60
2022/09/23 12:53:58;;;;;;;1.70;1.30;;;23.30;37.10;;;;;;5008299;28;20185;-60
2022/09/23 12:56:33;;;;;;;1.77;1.67;;;23.30;36.30;;;;;;5010111;28;20237;-61
2022/09/23 12:59:20;;;;;;;2.83;1.63;;;22.80;35.70;;;;;;5013533;28;20200;-60
2022/09/23 13:01:46;;;;;;;2.27;1.33;;;22.90;36.00;;;;;;5015011;28;20267;-60
2022/09/23 13:07:30;;;;;;;1.37;1.27;;;23.30;35.60;;;;;;4981529;28;20287;-60
2022/09/23 13:10:33;;;;;;;1.73;1.63;;;23.70;36.00;;;;;;5016828;28;20212;-60
2022/09/23 13:13:01;;;;;;;3.10;1.43;;;23.90;34.70;;;;;;5002470;28;20207;-60
2022/09/23 13:15:35;;;;;;;1.20;1.10;;;24.40;35.30;;;;;;5030706;28;20196;-60
2022/09/23 13:18:19;;;;;;;2.20;1.20;;;24.60;34.90;;;;;;4993869;28;20196;-61
2022/09/23 13:20:47;;;;;;;1.37;1.20;;;24.60;31.90;;;;;;4988093;28;20188;-61
2022/09/23 13:23:25;;;;;;;2.93;1.33;;;24.50;32.50;;;;;;5018642;28;20224;-60
2022/09/23 13:25:55;;;;;;;1.37;1.13;;;24.60;32.20;;;;;;5017541;28;20191;-60
2022/09/23 13:28:28;;;;;;;1.67;1.33;;;24.50;32.00;;;;;;5018126;28;20215;-60
2022/09/23 13:30:54;;;;;;;3.23;1.30;;;24.70;32.80;;;;;;5019217;28;20199;-61
2022/09/23 13:33:58;;;;;;;2.27;1.40;;;24.80;32.20;;;;;;5013252;28;20181;-60